Coeur D'Alene - Pappy Boyington Field
KCOE : rendu visible

Aérodrome :











RETROUVEZ-NOUS SUR...

 
LOGIN :

S'inscrire | Disclaimer

   EN    FR    IT 

 









Légende :    VFR   VFR Marginal   IFR   IFR Intensif   IFR Très Intensif
Visi : 
Plafond : 
>= 8 km
>= 3000ft
5 à 8 km
1000 à 3000 ft
1500m à 5 km
500 à 1000 ft
800 à 1500m
200 à 500 ft
< 800m
< 200 ft
Symboles :   Orages  Brouillard  Fortes neiges  Fortes précipitations  Vent > 20 kt






- Altitude de l'aérodrome : 2320 ft


KCOE - Coeur D'Alene - Pappy Boyington Field

DERNIER METAR :
  • 200456Z AUTO 04008KT 10SM FEW014 BKN021 OVC080 04/03 A2986 RMK AO2 SLP140 T00440033

METARs EXPIRÉS :
  • 200356Z AUTO 04004KT 10SM FEW006 OVC018 05/04 A2984 RMK AO2 SLP132 T00500044
  • 200330Z AUTO 00000KT 10SM FEW002 BKN022 OVC027 05/04 A2983 RMK AO2
  • 200316Z AUTO 00000KT 10SM FEW002 SCT022 OVC030 05/04 A2983 RMK AO2
  • 200256Z AUTO 00000KT 10SM BKN025 OVC031 05/04 A2982 RMK AO2 SLP124 60000 T00500044 51017

TAF KCOE
Valide du 20 à 01h jusqu'au 21 à 00h UTC


200130Z 2001/2024 VRB05KT P6SM BKN019 OVC027
FM200400 02004KT P6SM BKN030
FM200800 02007KT P6SM SCT100
FM201400 02011G19KT P6SM SKC
FM201800 02015G23KT P6SM SKC



MET'MAP, la Météo Aéronautique d'un coup d'oeil ! - Copyright ORBIFLY Décembre 2007 - Disclaimer

ORBIFLY MET'MAP TEAM :

Programmation & Développement : Alexandra Zaïnal
Conception & Développement : Baudouin d'Aumeries
Co-Programmation & Développement : Marc-Olivier Méhu
Soutien technique & logistique : Manuel Goepfert

Contact : metmap@orbifly.com




SOURCES & CREDITS :

   NOAA       Earth
Advisory